createdAt,value
2018-01-27T00:01:38.807Z,85.75
2018-01-27T00:04:07.149Z,85.78
2018-01-27T00:06:35.507Z,85.89
2018-01-27T00:09:03.821Z,86.02
2018-01-27T00:11:32.937Z,86.03
2018-01-27T00:14:01.275Z,86.06
2018-01-27T00:16:29.627Z,86.15
2018-01-27T00:18:57.943Z,86.24
2018-01-27T00:21:27.026Z,86.36
2018-01-27T00:23:55.380Z,86.36
2018-01-27T00:26:23.727Z,86.38
2018-01-27T00:28:52.090Z,86.33
2018-01-27T00:31:20.414Z,86.37
2018-01-27T00:33:48.782Z,86.37
2018-01-27T00:36:17.099Z,86.46
2018-01-27T00:38:46.207Z,86.54
2018-01-27T00:41:14.536Z,86.49
2018-01-27T00:43:42.889Z,86.47
2018-01-27T00:46:11.220Z,86.52
2018-01-27T00:48:39.566Z,86.72
2018-01-27T00:51:07.915Z,86.93
2018-01-27T00:53:36.264Z,87.06
2018-01-27T00:56:05.342Z,87.21
2018-01-27T00:58:33.688Z,87.51
2018-01-27T01:01:02.004Z,87.62
2018-01-27T01:03:31.126Z,87.69
2018-01-27T01:05:59.431Z,87.77
2018-01-27T01:08:27.786Z,87.88
2018-01-27T01:10:56.095Z,87.91
2018-01-27T01:13:24.450Z,87.92
2018-01-27T01:15:52.775Z,87.89
2018-01-27T01:18:21.092Z,87.81
2018-01-27T01:20:49.470Z,87.78
2018-01-27T01:23:17.780Z,87.75
2018-01-27T01:25:46.907Z,87.67
2018-01-27T01:28:15.986Z,87.62
2018-01-27T01:30:44.378Z,87.56
2018-01-27T01:33:12.737Z,87.48
2018-01-27T01:35:45.547Z,87.44
2018-01-27T01:38:14.730Z,87.28
2018-01-27T01:40:43.082Z,87.18
2018-01-27T01:43:17.002Z,87.10
2018-01-27T01:45:45.352Z,86.63
2018-01-27T01:48:14.598Z,86.37
2018-01-27T01:50:42.925Z,86.05
2018-01-27T01:53:12.038Z,85.88
2018-01-27T01:55:40.754Z,85.83
2018-01-27T01:58:09.108Z,85.66
2018-01-27T02:00:37.433Z,85.63
2018-01-27T02:03:06.571Z,85.66
2018-01-27T02:05:34.901Z,85.69
2018-01-27T02:08:04.012Z,85.68
2018-01-27T02:10:32.369Z,85.64
2018-01-27T02:13:01.509Z,85.62
2018-01-27T02:15:30.592Z,85.57
2018-01-27T02:17:58.965Z,85.50
2018-01-27T02:20:27.334Z,85.43
2018-01-27T02:22:55.709Z,85.36
2018-01-27T02:25:24.026Z,85.25
2018-01-27T02:27:52.337Z,85.25
2018-01-27T02:30:20.720Z,85.23
2018-01-27T02:32:49.809Z,85.30
2018-01-27T02:35:18.134Z,85.32
2018-01-27T02:37:46.494Z,85.34
2018-01-27T02:40:14.823Z,85.36
2018-01-27T02:42:43.165Z,85.33
2018-01-27T02:45:11.494Z,85.37
2018-01-27T02:47:39.845Z,85.40
2018-01-27T02:50:08.205Z,85.38
2018-01-27T02:52:36.506Z,85.42
2018-01-27T02:55:04.861Z,85.34
2018-01-27T02:57:33.197Z,85.12
2018-01-27T03:00:02.328Z,85.08
2018-01-27T03:02:30.639Z,85.07
2018-01-27T03:04:58.993Z,85.06
2018-01-27T03:07:27.309Z,85.10
2018-01-27T03:09:56.447Z,85.13
2018-01-27T03:12:24.765Z,85.20
2018-01-27T03:14:53.123Z,85.26
2018-01-27T03:17:21.435Z,85.30
2018-01-27T03:19:49.761Z,85.18
2018-01-27T03:22:18.141Z,85.12
2018-01-27T03:24:46.472Z,85.10
2018-01-27T03:27:15.595Z,85.15
2018-01-27T03:29:43.905Z,85.24
2018-01-27T03:32:12.265Z,85.25
2018-01-27T03:34:41.640Z,85.32
2018-01-27T03:37:11.348Z,85.29
2018-01-27T03:39:40.425Z,85.26
2018-01-27T03:42:08.789Z,85.28
2018-01-27T03:44:37.145Z,85.32
2018-01-27T03:47:05.483Z,85.29
2018-01-27T03:49:33.841Z,85.52
2018-01-27T03:52:02.953Z,85.53
2018-01-27T03:54:32.090Z,85.75
2018-01-27T03:57:00.425Z,85.68
2018-01-27T03:59:28.741Z,85.61
2018-01-27T04:01:57.148Z,85.56
2018-01-27T04:04:25.464Z,85.52
2018-01-27T04:06:53.814Z,85.48
2018-01-27T04:09:22.532Z,85.42
2018-01-27T04:11:51.275Z,85.39
2018-01-27T04:14:19.575Z,85.35
2018-01-27T04:16:47.917Z,84.98
2018-01-27T04:19:16.266Z,84.77
2018-01-27T04:21:44.588Z,84.63
2018-01-27T04:24:12.940Z,84.40
2018-01-27T04:26:41.264Z,84.38
2018-01-27T04:29:09.610Z,84.41
2018-01-27T04:31:37.932Z,84.54
2018-01-27T04:34:06.292Z,84.60
2018-01-27T04:36:35.395Z,84.70
2018-01-27T04:39:04.580Z,84.82
2018-01-27T04:41:33.681Z,84.83
2018-01-27T04:44:02.800Z,84.88
2018-01-27T04:46:31.138Z,84.85
2018-01-27T04:48:59.896Z,84.98
2018-01-27T04:51:28.220Z,84.90
2018-01-27T04:53:57.316Z,85.04
2018-01-27T04:56:26.459Z,84.93
2018-01-27T04:58:55.579Z,84.99
2018-01-27T05:01:24.711Z,85.00
2018-01-27T05:03:53.056Z,85.00
2018-01-27T05:06:21.424Z,85.09
2018-01-27T05:08:49.776Z,85.16
2018-01-27T05:11:18.136Z,85.24
2018-01-27T05:13:47.220Z,85.20
2018-01-27T05:16:15.570Z,85.19
2018-01-27T05:18:44.656Z,85.16
2018-01-27T05:21:13.004Z,85.20
2018-01-27T05:23:41.318Z,85.23
2018-01-27T05:26:09.724Z,85.26
2018-01-27T05:28:38.062Z,85.32
2018-01-27T05:31:06.415Z,85.32
2018-01-27T05:33:34.841Z,85.28
2018-01-27T05:36:03.910Z,85.28
2018-01-27T05:38:32.259Z,85.33
2018-01-27T05:41:00.571Z,85.22
2018-01-27T05:43:28.934Z,85.01
2018-01-27T05:45:57.299Z,85.04
2018-01-27T05:48:25.647Z,85.18
2018-01-27T05:50:53.941Z,85.21
2018-01-27T05:53:22.287Z,85.20
2018-01-27T05:55:51.421Z,85.12
2018-01-27T05:58:19.760Z,85.13
2018-01-27T06:00:48.875Z,85.25
2018-01-27T06:03:17.231Z,85.26
2018-01-27T06:05:46.462Z,85.19
2018-01-27T06:08:14.863Z,85.19
2018-01-27T06:10:43.307Z,85.14
2018-01-27T06:13:11.746Z,85.22
2018-01-27T06:15:40.075Z,85.31
2018-01-27T06:18:08.444Z,85.38
2018-01-27T06:20:36.771Z,85.49
2018-01-27T06:23:05.148Z,85.46
2018-01-27T06:25:33.526Z,85.32
2018-01-27T06:28:01.871Z,85.23
2018-01-27T06:30:30.199Z,85.25
2018-01-27T06:32:59.318Z,85.40
2018-01-27T06:35:27.711Z,85.36
2018-01-27T06:37:56.037Z,85.29
2018-01-27T06:40:24.366Z,85.26
2018-01-27T06:42:52.817Z,85.49
2018-01-27T06:45:21.180Z,85.50
2018-01-27T06:47:49.520Z,85.52
2018-01-27T06:50:17.903Z,85.38
2018-01-27T06:52:46.268Z,85.46
2018-01-27T06:55:14.600Z,85.39
2018-01-27T06:57:43.711Z,85.42
2018-01-27T07:00:12.785Z,85.43
2018-01-27T07:02:41.926Z,85.52
2018-01-27T07:05:10.777Z,85.53
2018-01-27T07:07:39.875Z,85.53
2018-01-27T07:10:09.079Z,85.37
2018-01-27T07:12:38.181Z,85.23
2018-01-27T07:15:06.727Z,85.18
2018-01-27T07:17:35.534Z,85.09
2018-01-27T07:20:04.807Z,84.99
2018-01-27T07:22:33.247Z,85.02
2018-01-27T07:25:01.802Z,84.86
2018-01-27T07:27:31.003Z,84.77
2018-01-27T07:30:00.291Z,84.63
2018-01-27T07:32:29.467Z,84.41
2018-01-27T07:34:57.979Z,84.60
2018-01-27T07:37:27.102Z,84.72
2018-01-27T07:39:55.420Z,84.86
2018-01-27T07:42:23.815Z,84.65
2018-01-27T07:44:52.913Z,84.87
2018-01-27T07:47:22.022Z,84.87
2018-01-27T07:49:51.091Z,84.87
2018-01-27T07:52:19.439Z,85.02
2018-01-27T07:54:47.747Z,84.87
2018-01-27T07:57:16.085Z,84.80
2018-01-27T07:59:44.427Z,84.80
2018-01-27T08:02:13.651Z,84.69
2018-01-27T08:04:41.966Z,84.94
2018-01-27T08:07:10.322Z,85.01
2018-01-27T08:09:38.676Z,84.95
2018-01-27T08:12:07.008Z,84.96
2018-01-27T08:14:35.350Z,84.93
2018-01-27T08:17:03.698Z,84.57
2018-01-27T08:19:32.002Z,84.64
2018-01-27T08:22:00.364Z,84.62
2018-01-27T08:24:29.442Z,84.50
2018-01-27T08:26:57.752Z,84.35
2018-01-27T08:29:26.093Z,84.48
2018-01-27T08:31:54.410Z,84.37
2018-01-27T08:34:22.778Z,84.44
2018-01-27T08:36:51.126Z,84.54
2018-01-27T08:39:19.471Z,84.47
2018-01-27T08:41:47.818Z,84.08
2018-01-27T08:44:16.163Z,83.78
2018-01-27T08:46:44.472Z,83.49
2018-01-27T08:49:12.814Z,83.31
2018-01-27T08:51:41.150Z,83.24
2018-01-27T08:54:09.504Z,83.10
2018-01-27T08:56:46.171Z,82.85
2018-01-27T08:59:24.255Z,82.62
2018-01-27T09:02:01.767Z,82.35
2018-01-27T09:04:39.098Z,82.36
2018-01-27T09:07:18.024Z,82.37
2018-01-27T09:09:55.517Z,82.09
2018-01-27T09:12:32.591Z,81.96
2018-01-27T09:15:10.111Z,81.45
2018-01-27T09:17:47.036Z,81.00
2018-01-27T09:20:25.744Z,80.78
2018-01-27T09:23:03.151Z,80.25
2018-01-27T09:25:40.958Z,79.86
2018-01-27T09:28:17.277Z,79.46
2018-01-27T09:30:57.137Z,79.02
2018-01-27T09:33:34.207Z,78.24
2018-01-27T09:36:07.073Z,77.82
2018-01-27T09:38:35.564Z,77.65
2018-01-27T09:41:03.914Z,77.55
2018-01-27T09:43:32.242Z,77.62
2018-01-27T09:46:00.578Z,77.40
2018-01-27T09:48:29.688Z,76.78
2018-01-27T09:50:58.778Z,76.15
2018-01-27T09:53:28.261Z,75.84
2018-01-27T09:55:58.242Z,75.54
2018-01-27T09:58:26.606Z,75.63
2018-01-27T10:00:54.931Z,76.06
2018-01-27T10:03:23.361Z,74.84
2018-01-27T10:05:51.737Z,74.71
2018-01-27T10:08:20.035Z,73.89
2018-01-27T10:10:48.415Z,73.46
2018-01-27T10:13:16.751Z,72.86
2018-01-27T10:15:45.370Z,72.64
2018-01-27T10:18:13.674Z,72.53
2018-01-27T10:20:42.028Z,72.24
2018-01-27T10:23:10.340Z,71.60
2018-01-27T10:25:38.659Z,71.58
2018-01-27T10:28:06.998Z,71.67
2018-01-27T10:30:37.161Z,71.53
2018-01-27T10:33:05.485Z,71.53
2018-01-27T10:35:33.823Z,71.03
2018-01-27T10:38:02.210Z,70.36
2018-01-27T10:40:30.675Z,69.99
2018-01-27T10:42:59.017Z,69.87
2018-01-27T10:45:28.153Z,70.09
2018-01-27T10:47:56.561Z,70.51
2018-01-27T10:50:25.004Z,71.15
2018-01-27T10:52:53.412Z,71.64
2018-01-27T10:55:21.843Z,71.83
2018-01-27T10:57:50.317Z,72.65
2018-01-27T11:00:18.764Z,73.33
2018-01-27T11:02:47.114Z,73.57
2018-01-27T11:05:16.217Z,73.69
2018-01-27T11:07:44.593Z,73.88
2018-01-27T11:10:13.272Z,73.86
2018-01-27T11:12:41.683Z,74.09
2018-01-27T11:15:10.074Z,73.82
2018-01-27T11:17:39.209Z,74.20
2018-01-27T11:20:07.584Z,74.19
2018-01-27T11:22:35.933Z,73.58
2018-01-27T11:25:05.093Z,72.57
2018-01-27T11:27:33.467Z,71.71
2018-01-27T11:30:02.667Z,71.76
2018-01-27T11:32:31.029Z,71.47
2018-01-27T11:34:59.409Z,71.69
2018-01-27T11:37:27.878Z,71.05
2018-01-27T11:39:57.009Z,71.56
2018-01-27T11:42:25.629Z,71.65
2018-01-27T11:44:55.132Z,70.99
2018-01-27T11:47:24.306Z,71.10
2018-01-27T11:49:53.444Z,71.43
2018-01-27T11:52:21.804Z,71.58
2018-01-27T11:54:50.195Z,71.33
2018-01-27T11:57:18.545Z,71.29
2018-01-27T11:59:48.452Z,71.40
2018-01-27T12:02:16.790Z,71.38
2018-01-27T12:04:45.946Z,70.73
2018-01-27T12:07:18.753Z,69.47
2018-01-27T12:09:47.377Z,67.97
2018-01-27T12:12:15.737Z,68.38
2018-01-27T12:14:44.065Z,68.26
2018-01-27T12:17:12.499Z,68.70
2018-01-27T12:19:40.897Z,69.54
2018-01-27T12:22:09.291Z,70.05
2018-01-27T12:24:38.499Z,69.93
2018-01-27T12:27:07.629Z,69.67
2018-01-27T12:29:36.116Z,69.38
2018-01-27T12:32:04.559Z,68.81
2018-01-27T12:34:33.723Z,68.01
2018-01-27T12:37:02.140Z,67.76
2018-01-27T12:39:30.528Z,66.54
2018-01-27T12:41:58.939Z,62.67
2018-01-27T12:44:27.341Z,61.74
2018-01-27T12:46:55.796Z,61.59
2018-01-27T12:49:24.203Z,61.74
2018-01-27T12:52:00.416Z,61.78
2018-01-27T12:54:29.033Z,61.77
2018-01-27T12:56:57.433Z,61.43
2018-01-27T12:59:26.727Z,60.44
2018-01-27T13:01:55.162Z,60.06
2018-01-27T13:04:23.992Z,58.93
2018-01-27T13:06:53.152Z,60.07
2018-01-27T13:09:21.516Z,59.45
2018-01-27T13:11:49.891Z,59.44
2018-01-27T13:14:18.242Z,59.78
2018-01-27T13:16:47.364Z,60.18
2018-01-27T13:19:15.752Z,60.71
2018-01-27T13:21:44.088Z,61.27
2018-01-27T13:24:13.243Z,60.70
2018-01-27T13:26:41.652Z,61.12
2018-01-27T13:29:10.044Z,61.64
2018-01-27T13:31:41.312Z,62.00
2018-01-27T13:34:09.676Z,62.66
2018-01-27T13:36:38.084Z,61.57
2018-01-27T13:39:07.963Z,62.36
2018-01-27T13:41:36.416Z,62.89
2018-01-27T13:44:04.782Z,63.44
2018-01-27T13:46:33.161Z,63.99
2018-01-27T13:49:01.758Z,64.98
2018-01-27T13:51:30.604Z,65.75
2018-01-27T13:53:59.020Z,66.82
2018-01-27T13:56:27.518Z,67.40
2018-01-27T13:58:56.629Z,67.41
2018-01-27T14:01:25.742Z,67.97
2018-01-27T14:03:54.089Z,68.44
2018-01-27T14:06:22.534Z,68.93
2018-01-27T14:08:50.964Z,69.25
2018-01-27T14:11:20.038Z,69.84
2018-01-27T14:13:48.432Z,70.11
2018-01-27T14:16:17.555Z,69.75
2018-01-27T14:18:45.923Z,69.81
2018-01-27T14:21:14.263Z,69.65
2018-01-27T14:23:42.651Z,68.94
2018-01-27T14:26:10.985Z,68.88
2018-01-27T14:28:40.143Z,69.33
2018-01-27T14:31:09.370Z,69.73
2018-01-27T14:33:39.083Z,70.24
2018-01-27T14:36:07.421Z,70.63
2018-01-27T14:38:36.534Z,70.70
2018-01-27T14:41:04.926Z,70.93
2018-01-27T14:43:33.251Z,70.98
2018-01-27T14:46:01.665Z,70.72
2018-01-27T14:48:30.019Z,70.72
2018-01-27T14:50:58.379Z,71.02
2018-01-27T14:53:26.775Z,71.60
2018-01-27T14:55:56.042Z,72.07
2018-01-27T14:58:24.377Z,72.42
2018-01-27T15:00:52.753Z,72.86
2018-01-27T15:03:21.097Z,73.61
2018-01-27T15:05:49.425Z,74.30
2018-01-27T15:08:17.782Z,74.47
2018-01-27T15:10:46.894Z,75.37
2018-01-27T15:13:15.263Z,75.77
2018-01-27T15:15:43.587Z,76.00
2018-01-27T15:18:11.951Z,76.42
2018-01-27T15:20:40.291Z,76.74
2018-01-27T15:23:08.655Z,77.09
2018-01-27T15:25:38.510Z,77.29
2018-01-27T15:28:06.882Z,77.52
2018-01-27T15:30:35.319Z,77.84
2018-01-27T15:33:04.457Z,77.84
2018-01-27T15:35:33.223Z,78.07
2018-01-27T15:38:01.539Z,77.99
2018-01-27T15:40:29.910Z,78.10
2018-01-27T15:42:58.329Z,78.34
2018-01-27T15:45:26.684Z,79.04
2018-01-27T15:47:55.098Z,79.36
2018-01-27T15:50:24.202Z,79.41
2018-01-27T15:52:53.288Z,79.62
2018-01-27T15:55:22.394Z,79.83
2018-01-27T15:57:51.475Z,80.50
2018-01-27T16:00:21.072Z,80.49
2018-01-27T16:02:49.429Z,80.46
2018-01-27T16:05:17.771Z,80.46
2018-01-27T16:07:46.103Z,80.56
2018-01-27T16:10:14.467Z,80.45
2018-01-27T16:12:42.798Z,81.08
2018-01-27T16:15:11.137Z,81.24
2018-01-27T16:17:39.490Z,81.80
2018-01-27T16:20:07.834Z,81.91
2018-01-27T16:22:36.179Z,82.10
2018-01-27T16:25:04.936Z,82.52
2018-01-27T16:27:33.313Z,82.92
2018-01-27T16:30:01.676Z,82.82
2018-01-27T16:32:30.029Z,82.77
2018-01-27T16:34:58.449Z,83.21
2018-01-27T16:37:29.186Z,83.37
2018-01-27T16:39:57.568Z,83.07
2018-01-27T16:42:25.977Z,82.94
2018-01-27T16:44:55.125Z,82.71
2018-01-27T16:47:23.448Z,82.23
2018-01-27T16:49:52.522Z,82.37
2018-01-27T16:52:20.914Z,83.68
2018-01-27T16:54:50.015Z,84.63
2018-01-27T16:57:18.440Z,83.92
2018-01-27T16:59:46.770Z,83.94
2018-01-27T17:02:15.868Z,84.00
2018-01-27T17:04:47.565Z,84.21
2018-01-27T17:07:15.920Z,84.27
2018-01-27T17:09:44.263Z,84.46
2018-01-27T17:12:12.674Z,85.28
2018-01-27T17:14:41.017Z,85.56
2018-01-27T17:17:09.948Z,85.45
2018-01-27T17:19:38.349Z,85.64
2018-01-27T17:22:09.201Z,86.25
2018-01-27T17:24:37.544Z,86.95
2018-01-27T17:27:05.933Z,87.26
2018-01-27T17:29:34.301Z,87.53
2018-01-27T17:32:02.648Z,87.46
2018-01-27T17:34:31.087Z,87.40
2018-01-27T17:36:59.440Z,87.33
2018-01-27T17:39:28.547Z,87.72
2018-01-27T17:41:56.910Z,87.71
2018-01-27T17:44:25.227Z,87.45
2018-01-27T17:46:53.556Z,87.45
2018-01-27T17:49:21.890Z,87.76
2018-01-27T17:51:50.209Z,87.93
2018-01-27T17:54:18.580Z,88.13
2018-01-27T17:56:46.967Z,88.10
2018-01-27T17:59:16.846Z,88.01
2018-01-27T18:01:45.152Z,88.21
2018-01-27T18:04:14.858Z,88.67
2018-01-27T18:06:45.471Z,88.93
2018-01-27T18:09:14.714Z,89.07
2018-01-27T18:11:43.090Z,89.16
2018-01-27T18:14:11.476Z,89.24
2018-01-27T18:16:39.794Z,89.32
2018-01-27T18:19:08.129Z,89.52
2018-01-27T18:21:36.506Z,89.52
2018-01-27T18:24:06.776Z,89.45
2018-01-27T18:26:35.918Z,89.53
2018-01-27T18:29:04.228Z,89.47
2018-01-27T18:31:32.574Z,89.15
2018-01-27T18:34:01.325Z,88.86
2018-01-27T18:36:30.445Z,88.77
2018-01-27T18:38:59.543Z,88.77
2018-01-27T18:41:28.774Z,89.03
2018-01-27T18:43:57.132Z,89.37
2018-01-27T18:46:25.456Z,89.33
2018-01-27T18:48:54.878Z,89.19
2018-01-27T18:51:24.129Z,89.32
2018-01-27T18:53:52.577Z,89.59
2018-01-27T18:56:21.269Z,89.99
2018-01-27T18:58:50.544Z,89.89
2018-01-27T19:01:18.832Z,89.91
2018-01-27T19:03:47.185Z,89.91
2018-01-27T19:06:15.687Z,90.08
2018-01-27T19:08:44.035Z,90.21
2018-01-27T19:11:12.362Z,90.32
2018-01-27T19:13:40.727Z,90.31
2018-01-27T19:16:09.037Z,90.44
2018-01-27T19:18:39.157Z,90.42
2018-01-27T19:21:07.484Z,90.39
2018-01-27T19:23:36.600Z,90.50
2018-01-27T19:26:06.185Z,90.31
2018-01-27T19:28:35.887Z,90.64
2018-01-27T19:31:05.906Z,90.66
2018-01-27T19:33:34.740Z,90.60
2018-01-27T19:36:03.065Z,90.31
2018-01-27T19:38:33.525Z,90.28
2018-01-27T19:41:01.876Z,90.36
2018-01-27T19:43:30.654Z,90.40
2018-01-27T19:45:59.757Z,90.47
2018-01-27T19:48:29.244Z,90.59
2018-01-27T19:50:57.631Z,90.52
2018-01-27T19:53:26.797Z,90.54
2018-01-27T19:55:55.858Z,90.43
2018-01-27T19:58:24.911Z,90.07
2018-01-27T20:00:53.312Z,90.27
2018-01-27T20:03:21.684Z,90.44
2018-01-27T20:05:51.313Z,90.50
2018-01-27T20:08:20.380Z,90.58
2018-01-27T20:10:50.401Z,90.62
2018-01-27T20:13:19.503Z,90.67
2018-01-27T20:15:47.823Z,90.67
2018-01-27T20:18:17.626Z,90.66
2018-01-27T20:20:46.774Z,90.60
2018-01-27T20:23:17.249Z,90.74
2018-01-27T20:25:48.769Z,90.74
2018-01-27T20:28:17.260Z,90.70
2018-01-27T20:30:45.884Z,90.62
2018-01-27T20:33:15.086Z,90.49
2018-01-27T20:35:44.281Z,90.58
2018-01-27T20:38:13.960Z,90.57
2018-01-27T20:40:42.308Z,90.31
2018-01-27T20:43:12.139Z,90.39
2018-01-27T20:45:40.463Z,90.29
2018-01-27T20:48:10.599Z,90.15
2018-01-27T20:50:40.872Z,89.85
2018-01-27T20:53:10.284Z,89.78
2018-01-27T20:55:38.972Z,89.88
2018-01-27T20:58:07.882Z,90.03
2018-01-27T21:00:38.010Z,90.12
2018-01-27T21:03:07.420Z,89.95
2018-01-27T21:05:35.763Z,89.99
2018-01-27T21:08:04.947Z,89.95
2018-01-27T21:10:33.340Z,89.90
2018-01-27T21:13:01.699Z,89.90
2018-01-27T21:15:30.064Z,89.95
2018-01-27T21:17:58.456Z,89.78
2018-01-27T21:20:26.834Z,89.84
2018-01-27T21:22:55.164Z,89.80
2018-01-27T21:25:24.324Z,89.82
2018-01-27T21:27:52.656Z,89.74
2018-01-27T21:30:21.759Z,89.50
2018-01-27T21:32:50.512Z,89.37
2018-01-27T21:35:18.860Z,89.43
2018-01-27T21:37:47.220Z,89.29
2018-01-27T21:40:15.568Z,89.20
2018-01-27T21:42:45.316Z,88.56
2018-01-27T21:45:13.666Z,88.39
2018-01-27T21:47:42.409Z,88.06
2018-01-27T21:50:10.765Z,87.97
2018-01-27T21:52:39.094Z,87.53
2018-01-27T21:55:08.189Z,87.42
2018-01-27T21:57:38.119Z,86.90
2018-01-27T22:00:07.256Z,86.31
2018-01-27T22:02:37.032Z,86.09
2018-01-27T22:05:05.768Z,85.51
2018-01-27T22:07:34.120Z,85.29
2018-01-27T22:10:03.583Z,85.20
2018-01-27T22:12:33.045Z,84.99
2018-01-27T22:15:02.318Z,84.40
2018-01-27T22:17:30.638Z,84.05
2018-01-27T22:19:59.244Z,83.78
2018-01-27T22:22:28.336Z,83.80
2018-01-27T22:24:57.448Z,83.35
2018-01-27T22:27:25.791Z,83.05
2018-01-27T22:29:54.966Z,82.99
2018-01-27T22:32:23.328Z,82.89
2018-01-27T22:34:51.647Z,83.08
2018-01-27T22:37:19.984Z,82.75
2018-01-27T22:39:48.315Z,82.93
2018-01-27T22:42:17.426Z,82.70
2018-01-27T22:44:45.750Z,82.75
2018-01-27T22:47:14.105Z,82.33
2018-01-27T22:49:42.436Z,82.44
2018-01-27T22:52:12.368Z,82.06
2018-01-27T22:54:41.488Z,81.77
2018-01-27T22:57:09.845Z,81.52
2018-01-27T22:59:38.703Z,81.56
2018-01-27T23:02:07.811Z,81.64
2018-01-27T23:04:36.943Z,81.24
2018-01-27T23:07:05.265Z,81.26
2018-01-27T23:09:33.660Z,80.75
2018-01-27T23:12:02.804Z,80.24
2018-01-27T23:14:31.145Z,80.39
2018-01-27T23:17:00.279Z,80.27
2018-01-27T23:19:28.647Z,79.74
2018-01-27T23:21:57.022Z,79.87
2018-01-27T23:24:25.368Z,79.73
2018-01-27T23:26:53.735Z,79.61
2018-01-27T23:29:22.067Z,79.35
2018-01-27T23:31:50.435Z,79.34
2018-01-27T23:34:19.169Z,79.35
2018-01-27T23:36:47.916Z,79.21
2018-01-27T23:39:16.231Z,79.21
2018-01-27T23:41:44.608Z,79.04
2018-01-27T23:44:12.927Z,79.00
2018-01-27T23:46:41.282Z,78.99
2018-01-27T23:49:10.357Z,78.77
2018-01-27T23:51:38.719Z,78.96
2018-01-27T23:54:07.053Z,79.10
2018-01-27T23:56:35.415Z,79.10
2018-01-27T23:59:04.523Z,79.18
